Time;durP1;ratioP1;P1;durP2;ratioP2;P2;SDS_P1;SDS_P2;PMS_P1;PMS_P2;Temp;Humidity;BMP_temperature;BMP_pressure;BME280_temperature;BME280_humidity;BME280_pressure;Samples;Min_cycle;Max_cycle;Signal;HPM_P1;HPM_P2
2023/01/16 00:05:22;;;;;;;2.87;1.10;;;;;;;3.53;92.14;97674.22;1347544;104;21186;-93
2023/01/16 00:07:48;;;;;;;5.47;1.45;;;;;;;3.48;91.81;97683.93;1359728;103;21650;-93
2023/01/16 00:10:17;;;;;;;2.50;1.10;;;;;;;3.47;92.03;97684.83;1358637;103;21211;-93
2023/01/16 00:12:54;;;;;;;2.83;1.25;;;;;;;3.49;92.03;97683.01;1357997;103;21164;-94
2023/01/16 00:15:35;;;;;;;2.05;0.68;;;;;;;3.51;91.96;97687.18;1337067;104;21243;-93
2023/01/16 00:18:01;;;;;;;1.30;0.70;;;;;;;3.51;91.79;97681.19;1333523;104;21159;-94
2023/01/16 00:20:32;;;;;;;4.00;0.78;;;;;;;3.53;92.01;97684.53;1372672;102;21178;-94
2023/01/16 00:22:59;;;;;;;2.30;1.13;;;;;;;3.53;91.79;97680.20;1376796;101;21154;-94
2023/01/16 00:26:31;;;;;;;;;;;;;;;;;;;;;
2023/01/16 00:29:16;;;;;;;1.20;0.82;;;;;;;3.53;91.64;97694.86;1396790;99;21367;-93
2023/01/16 00:32:25;;;;;;;;;;;;;;;;;;;;;
2023/01/16 00:34:44;;;;;;;3.22;1.00;;;;;;;3.56;91.83;97693.41;1489779;90;21651;-93
2023/01/16 00:37:11;;;;;;;4.00;0.85;;;;;;;3.57;91.69;97693.77;1539197;90;21094;-94
2023/01/16 00:39:54;;;;;;;1.85;0.50;;;;;;;3.56;91.59;97694.70;1532988;90;21038;-93
2023/01/16 00:42:27;;;;;;;4.97;0.68;;;;;;;3.54;91.31;97701.67;1471685;94;21082;-93
2023/01/16 00:48:14;;;;;;;;;;;;;;;;;;;;;
2023/01/16 00:51:42;;;;;;;;;;;;;;;;;;;;;
2023/01/16 01:00:09;;;;;;;1.85;0.90;;;;;;;3.32;91.14;97683.41;1472203;95;21608;-94
2023/01/16 01:02:40;;;;;;;4.03;1.65;;;;;;;3.38;90.99;97697.73;1460647;95;21628;-93
2023/01/16 01:05:08;;;;;;;3.55;0.70;;;;;;;3.34;90.95;97700.94;1426504;98;21128;-93
2023/01/16 01:07:35;;;;;;;2.60;0.70;;;;;;;3.33;90.65;97712.61;1496445;93;21065;-91
2023/01/16 01:10:02;;;;;;;3.43;1.07;;;;;;;3.30;90.61;97694.25;1501485;93;21101;-92
2023/01/16 01:12:31;;;;;;;1.87;0.80;;;;;;;3.28;90.79;97698.67;1532551;90;22477;-93
2023/01/16 01:14:58;;;;;;;2.37;1.07;;;;;;;3.29;90.78;97687.43;1531237;90;21189;-93
2023/01/16 01:17:25;;;;;;;3.10;1.00;;;;;;;3.29;90.56;97708.06;1523867;92;21073;-93
2023/01/16 01:19:51;;;;;;;1.00;0.55;;;;;;;3.24;90.38;97722.93;1524054;92;21700;-93
2023/01/16 01:22:18;;;;;;;2.00;0.60;;;;;;;3.17;90.17;97711.27;1520476;92;21197;-93
2023/01/16 01:24:51;;;;;;;1.33;0.80;;;;;;;3.00;90.49;97693.22;1523224;91;21660;-93
2023/01/16 01:27:20;;;;;;;2.62;0.90;;;;;;;2.91;90.61;97696.62;1512247;92;21285;-94
2023/01/16 01:29:49;;;;;;;2.27;1.07;;;;;;;2.88;90.74;97707.05;1548156;88;21609;-94
2023/01/16 01:32:17;;;;;;;3.33;0.88;;;;;;;2.87;90.75;97698.95;1684822;82;21675;-93
2023/01/16 01:34:48;;;;;;;2.87;1.03;;;;;;;2.88;90.90;97693.33;1702450;81;20978;-93
2023/01/16 01:43:52;;;;;;;1.40;0.82;;;;;;;2.87;90.75;97703.27;1523001;92;21011;-93
2023/01/16 01:46:24;;;;;;;2.92;0.85;;;;;;;2.82;90.65;97706.06;1489663;94;21096;-94
2023/01/16 01:48:57;;;;;;;1.52;0.80;;;;;;;2.78;90.62;97703.73;1521455;91;21101;-93
2023/01/16 01:51:32;;;;;;;2.70;0.98;;;;;;;2.73;90.60;97705.23;1517972;91;21671;-94
2023/01/16 01:54:03;;;;;;;2.12;0.82;;;;;;;2.68;90.54;97709.76;1495345;93;21614;-95
2023/01/16 01:56:44;;;;;;;4.65;0.85;;;;;;;2.60;90.48;97706.25;1518149;93;21636;-93
2023/01/16 01:59:27;;;;;;;0.60;0.42;;;;;;;2.59;90.58;97703.76;1514856;93;21074;-94
2023/01/16 02:02:00;;;;;;;4.78;1.45;;;;;;;2.60;90.64;97708.00;1504964;92;21105;-94
2023/01/16 02:04:34;;;;;;;3.33;0.70;;;;;;;2.62;90.65;97700.58;1530699;91;21099;-95
2023/01/16 02:07:08;;;;;;;0.90;0.57;;;;;;;2.64;90.67;97703.09;1486735;93;21418;-95
2023/01/16 02:22:09;;;;;;;1.15;0.85;;;;;;;2.57;90.44;97703.82;1585146;87;21023;-94
2023/01/16 02:24:59;;;;;;;1.67;0.80;;;;;;;2.53;90.42;97701.48;1580566;87;21127;-95
2023/01/16 02:27:48;;;;;;;1.32;0.62;;;;;;;2.49;90.44;97703.34;1641924;83;21144;-94
2023/01/16 02:31:07;;;;;;;1.67;0.70;;;;;;;2.58;90.23;97708.09;1659833;83;20989;-94
2023/01/16 02:34:15;;;;;;;;;;;;;;;;;;;;;
2023/01/16 02:37:22;;;;;;;5.55;0.62;;;;;;;2.65;90.38;97707.33;1677707;81;21013;-94
2023/01/16 02:40:11;;;;;;;1.45;0.60;;;;;;;2.70;90.37;97722.13;1729404;81;21651;-93
2023/01/16 02:42:45;;;;;;;1.62;0.80;;;;;;;2.76;90.42;97732.14;1703408;82;21022;-94
2023/01/16 02:45:43;;;;;;;2.15;0.80;;;;;;;2.83;90.45;97732.66;1724164;81;20979;-94
2023/01/16 02:48:29;;;;;;;1.95;0.88;;;;;;;2.81;90.57;97732.76;1703490;81;20960;-94
2023/01/16 02:51:13;;;;;;;1.80;1.05;;;;;;;2.88;90.80;97727.67;1687925;82;21573;-93
2023/01/16 02:54:02;;;;;;;1.77;0.78;;;;;;;2.94;90.79;97737.31;1665137;82;20962;-93
2023/01/16 02:56:41;;;;;;;1.80;0.70;;;;;;;2.98;90.77;97731.12;1725867;80;21697;-93
2023/01/16 02:59:23;;;;;;;5.25;0.88;;;;;;;3.02;90.56;97733.91;1675152;82;21045;-93
2023/01/16 03:05:24;;;;;;;1.65;0.78;;;;;;;3.16;90.60;97734.08;1590115;87;21014;-92
2023/01/16 03:25:47;;;;;;;2.62;1.32;;;;;;;2.99;90.56;97737.94;1398331;101;21117;-93
2023/01/16 03:32:10;;;;;;;2.25;0.90;;;;;;;3.02;90.75;97749.38;1390654;100;21622;-93
2023/01/16 03:35:08;;;;;;;1.70;0.55;;;;;;;3.07;90.77;97738.40;1398447;101;21584;-94
2023/01/16 03:41:02;;;;;;;2.52;0.80;;;;;;;3.07;90.55;97742.27;1336283;104;21130;-94
2023/01/16 03:43:36;;;;;;;3.53;0.80;;;;;;;3.06;90.57;97747.89;1383596;100;21165;-94
2023/01/16 03:46:13;;;;;;;1.22;1.00;;;;;;;3.04;90.36;97756.59;1394276;101;21171;-93
2023/01/16 03:49:03;;;;;;;2.80;0.60;;;;;;;3.02;90.43;97758.41;1420243;97;21059;-94
2023/01/16 03:51:34;;;;;;;3.22;1.25;;;;;;;2.95;90.19;97757.05;1451826;97;21620;-93
2023/01/16 03:54:28;;;;;;;1.90;1.00;;;;;;;2.86;90.21;97746.27;1489643;92;21073;-94
2023/01/16 03:57:14;;;;;;;1.72;0.93;;;;;;;2.79;90.13;97747.45;1522177;92;21061;-93
2023/01/16 03:59:55;;;;;;;2.80;1.02;;;;;;;2.72;90.16;97750.38;1538528;90;21160;-94
2023/01/16 04:02:35;;;;;;;1.50;0.72;;;;;;;2.69;90.29;97759.13;1532886;87;20997;-93
2023/01/16 04:05:12;;;;;;;3.10;0.82;;;;;;;2.71;90.36;97757.28;1574320;88;21200;-93
2023/01/16 04:07:51;;;;;;;4.20;0.85;;;;;;;2.76;90.46;97754.50;1607417;82;21079;-93
2023/01/16 04:10:23;;;;;;;4.10;1.10;;;;;;;2.78;90.45;97763.84;1692810;82;21633;-93
2023/01/16 04:12:59;;;;;;;2.30;0.85;;;;;;;2.82;90.41;97762.77;1720757;81;21023;-93
2023/01/16 04:15:30;;;;;;;3.75;0.80;;;;;;;2.84;90.40;97758.38;1716789;81;20970;-93
2023/01/16 04:18:00;;;;;;;3.87;1.02;;;;;;;2.89;90.29;97757.72;1688889;82;21066;-92
2023/01/16 04:20:29;;;;;;;2.17;0.90;;;;;;;2.90;90.24;97754.68;1720080;81;21078;-93
2023/01/16 04:22:56;;;;;;;2.37;0.93;;;;;;;2.91;90.27;97756.34;1715654;81;21074;-93
2023/01/16 04:26:06;;;;;;;3.30;0.95;;;;;;;2.92;90.21;97764.47;1706936;81;21509;-93
2023/01/16 04:28:37;;;;;;;1.60;0.80;;;;;;;2.95;90.37;97754.02;1708711;81;21053;-94
2023/01/16 04:31:08;;;;;;;1.30;0.80;;;;;;;2.97;90.30;97755.21;1724253;80;21034;-93
2023/01/16 04:33:35;;;;;;;2.50;1.00;;;;;;;2.98;90.23;97755.61;1730877;80;21108;-93
2023/01/16 04:36:06;;;;;;;1.43;0.70;;;;;;;2.98;90.23;97760.30;1731817;79;21023;-93
2023/01/16 04:41:54;;;;;;;3.42;0.95;;;;;;;2.95;90.03;97758.34;1670062;83;21000;-93
2023/01/16 04:44:21;;;;;;;2.08;0.90;;;;;;;2.90;90.00;97755.51;1664911;83;21041;-93
2023/01/16 04:46:53;;;;;;;2.27;0.93;;;;;;;2.85;89.97;97748.91;1668990;84;21001;-93
2023/01/16 04:49:56;;;;;;;2.62;1.47;;;;;;;2.84;90.04;97765.28;1638999;85;21124;-94
2023/01/16 04:53:28;;;;;;;2.47;1.00;;;;;;;2.84;90.03;97768.69;1523596;91;21077;-94
2023/01/16 04:55:57;;;;;;;3.30;1.00;;;;;;;2.85;90.00;97778.09;1550342;90;21151;-94
2023/01/16 04:58:25;;;;;;;2.67;1.00;;;;;;;2.85;90.13;97775.50;1548973;91;21057;-93
2023/01/16 05:01:07;;;;;;;2.67;0.95;;;;;;;2.90;90.20;97785.61;1555208;90;21058;-93
2023/01/16 05:04:02;;;;;;;2.67;0.88;;;;;;;2.93;90.16;97785.92;1551808;90;21124;-94
2023/01/16 05:06:47;;;;;;;2.12;0.75;;;;;;;2.97;90.16;97786.14;1549199;91;21093;-93
2023/01/16 05:09:37;;;;;;;2.15;0.70;;;;;;;2.98;90.16;97811.04;1450482;96;21193;-93
2023/01/16 05:12:04;;;;;;;1.90;0.60;;;;;;;3.01;90.28;97798.00;1449960;96;21690;-94
2023/01/16 05:14:39;;;;;;;3.27;1.30;;;;;;;3.03;90.15;97814.24;1456214;96;21584;-93
2023/01/16 05:17:06;;;;;;;4.30;1.05;;;;;;;3.04;90.17;97805.59;1478869;93;21070;-92
2023/01/16 05:19:57;;;;;;;2.67;1.40;;;;;;;3.05;90.15;97812.41;1491902;93;21067;-93
2023/01/16 05:22:32;;;;;;;3.35;1.35;;;;;;;3.02;90.13;97817.25;1492468;94;21164;-93
2023/01/16 05:25:10;;;;;;;2.85;1.12;;;;;;;3.02;90.06;97820.28;1487173;92;21746;-92
2023/01/16 05:27:37;;;;;;;4.83;1.10;;;;;;;2.96;89.92;97821.87;1519317;90;21135;-93
2023/01/16 05:30:09;;;;;;;3.12;1.05;;;;;;;2.88;89.82;97826.91;1597392;87;21006;-93
2023/01/16 05:32:33;;;;;;;2.27;0.98;;;;;;;2.84;89.80;97827.98;1611492;86;21036;-94
2023/01/16 05:35:05;;;;;;;2.47;1.20;;;;;;;2.79;89.77;97819.62;1606013;86;21042;-92
2023/01/16 05:37:39;;;;;;;2.85;1.07;;;;;;;2.71;89.78;97810.11;1617547;86;21047;-92
2023/01/16 05:40:08;;;;;;;2.08;0.80;;;;;;;2.63;89.71;97816.92;1616760;86;21097;-93
2023/01/16 05:42:35;;;;;;;1.57;0.60;;;;;;;2.57;89.80;97816.35;1613308;86;20978;-94
2023/01/16 05:45:05;;;;;;;3.22;0.98;;;;;;;2.52;89.76;97818.30;1625931;86;21064;-93
2023/01/16 05:47:33;;;;;;;2.27;1.50;;;;;;;2.46;89.75;97820.27;1633869;85;21013;-93
2023/01/16 05:50:00;;;;;;;2.00;1.20;;;;;;;2.39;89.71;97830.45;1623568;85;21507;-93
2023/01/16 05:52:39;;;;;;;3.02;1.32;;;;;;;2.31;89.69;97831.23;1614471;85;21034;-92
2023/01/16 05:55:06;;;;;;;4.00;1.32;;;;;;;2.25;89.66;97823.78;1588475;86;21011;-92
2023/01/16 05:57:39;;;;;;;3.45;1.10;;;;;;;2.17;89.56;97815.55;1600346;87;21024;-93
2023/01/16 06:00:12;;;;;;;2.87;1.00;;;;;;;2.10;89.60;97825.30;1585498;86;21501;-93
2023/01/16 06:02:48;;;;;;;2.42;1.20;;;;;;;2.05;89.64;97818.22;1598130;86;21043;-92
2023/01/16 06:05:25;;;;;;;2.72;1.00;;;;;;;1.99;89.66;97820.61;1601350;84;21529;-93
2023/01/16 06:11:56;;;;;;;4.45;1.25;;;;;;;1.94;89.69;97817.39;1630530;84;21085;-92
2023/01/16 06:14:49;;;;;;;2.20;1.02;;;;;;;1.90;89.76;97817.12;1579436;88;21066;-93
2023/01/16 06:17:40;;;;;;;1.52;1.17;;;;;;;1.87;89.73;97821.56;1567547;88;21606;-94
2023/01/16 06:20:12;;;;;;;2.10;1.22;;;;;;;1.84;89.78;97823.81;1569331;87;20999;-92
2023/01/16 06:23:08;;;;;;;4.53;1.70;;;;;;;1.84;89.87;97821.25;1585119;87;21043;-92
2023/01/16 06:29:13;;;;;;;3.92;1.35;;;;;;;1.78;89.79;97831.80;1487329;95;21134;-93
2023/01/16 06:34:56;;;;;;;;;;;;;;;;;;;;;
2023/01/16 06:37:32;;;;;;;2.80;1.65;;;;;;;1.62;89.81;97835.91;1445410;95;21272;-93
2023/01/16 06:40:18;;;;;;;3.65;1.65;;;;;;;1.56;89.90;97835.25;1465343;96;21130;-95
2023/01/16 06:42:48;;;;;;;2.67;1.62;;;;;;;1.52;89.94;97837.58;1435674;97;21034;-93
2023/01/16 06:48:45;;;;;;;;;;;;;;;;;;;;;
2023/01/16 06:54:25;;;;;;;1.32;1.02;;;;;;;1.35;90.12;97824.58;1398478;99;21073;-95
2023/01/16 07:27:15;;;;;;;;;;;;;;;;;;;;;
2023/01/16 07:32:57;;;;;;;;;;;;;;;;;;;;;
2023/01/16 08:13:56;;;;;;;5.17;1.87;;;;;;;6.77;91.99;97840.44;1444554;98;21317;-96
2023/01/16 11:21:00;;;;;;;;;;;;;;;;;;;;;
2023/01/16 15:14:37;;;;;;;22.10;12.82;;;;;;;1.95;70.05;97573.25;1663511;82;21141;-92
2023/01/16 15:23:18;;;;;;;15.72;8.90;;;;;;;1.79;70.60;97574.86;1651357;85;21591;-92
2023/01/16 15:41:10;;;;;;;24.43;11.95;;;;;;;1.60;71.59;97559.89;1498927;93;21082;-96
2023/01/16 15:47:16;;;;;;;28.62;15.18;;;;;;;1.51;71.60;97554.28;1562646;89;21120;-92
2023/01/16 15:50:39;;;;;;;29.63;12.58;;;;;;;1.45;72.12;97541.68;1548664;87;21005;-92
2023/01/16 17:51:21;;;;;;;;;;;;;;;;;;;;;
